createdAt,value
2023-05-14T00:01:00.595Z,19.25
2023-05-14T00:03:54.695Z,19.24
2023-05-14T00:06:48.875Z,19.22
2023-05-14T00:09:43.105Z,19.20
2023-05-14T00:12:37.049Z,19.25
2023-05-14T00:15:32.322Z,19.34
2023-05-14T00:18:28.047Z,19.32
2023-05-14T00:21:22.136Z,19.21
2023-05-14T00:24:16.561Z,19.16
2023-05-14T00:27:11.544Z,19.15
2023-05-14T00:30:06.719Z,19.19
2023-05-14T00:33:01.117Z,19.24
2023-05-14T00:35:54.995Z,19.17
2023-05-14T00:38:49.243Z,19.27
2023-05-14T00:41:42.902Z,19.13
2023-05-14T00:44:36.758Z,19.17
2023-05-14T00:47:30.763Z,19.09
2023-05-14T00:50:25.402Z,19.13
2023-05-14T00:53:20.064Z,19.12
2023-05-14T00:56:15.212Z,19.09
2023-05-14T00:59:09.221Z,19.09
2023-05-14T01:01:53.272Z,19.26
2023-05-14T01:04:46.951Z,19.17
2023-05-14T01:07:54.620Z,19.17
2023-05-14T01:10:54.115Z,19.16
2023-05-14T01:13:55.935Z,19.20
2023-05-14T01:16:52.031Z,19.10
2023-05-14T01:19:48.384Z,19.09
2023-05-14T01:22:42.613Z,19.06
2023-05-14T01:25:38.778Z,19.09
2023-05-14T01:28:37.500Z,19.10
2023-05-14T01:31:37.683Z,19.03
2023-05-14T01:34:33.026Z,18.96
2023-05-14T01:37:28.234Z,19.00
2023-05-14T01:40:23.137Z,19.04
2023-05-14T01:43:18.373Z,19.10
2023-05-14T01:46:12.859Z,19.20
2023-05-14T01:49:06.620Z,19.11
2023-05-14T01:52:00.871Z,18.98
2023-05-14T01:54:55.203Z,19.06
2023-05-14T01:57:49.449Z,18.99
2023-05-14T02:00:43.727Z,18.98
2023-05-14T02:03:37.690Z,19.04
2023-05-14T02:06:32.254Z,19.09
2023-05-14T02:09:26.142Z,19.06
2023-05-14T02:12:20.167Z,19.05
2023-05-14T02:15:15.376Z,18.98
2023-05-14T02:18:09.817Z,18.92
2023-05-14T02:21:03.915Z,18.95
2023-05-14T02:23:57.957Z,19.13
2023-05-14T02:26:51.659Z,19.15
2023-05-14T02:29:45.584Z,19.01
2023-05-14T02:32:39.575Z,18.85
2023-05-14T02:35:33.453Z,18.77
2023-05-14T02:38:27.752Z,18.89
2023-05-14T02:41:21.665Z,19.04
2023-05-14T02:44:15.748Z,18.96
2023-05-14T02:47:10.721Z,18.84
2023-05-14T02:50:06.424Z,18.75
2023-05-14T02:53:01.692Z,18.78
2023-05-14T02:55:56.013Z,18.96
2023-05-14T02:58:50.212Z,18.98
2023-05-14T03:01:44.299Z,18.94
2023-05-14T03:04:38.865Z,18.71
2023-05-14T03:07:32.871Z,18.79
2023-05-14T03:10:26.823Z,18.88
2023-05-14T03:13:21.026Z,18.86
2023-05-14T03:16:15.197Z,18.83
2023-05-14T03:19:09.982Z,18.71
2023-05-14T03:22:04.271Z,18.84
2023-05-14T03:24:58.192Z,18.88
2023-05-14T03:27:52.317Z,18.86
2023-05-14T03:30:46.542Z,18.87
2023-05-14T03:33:40.852Z,19.00
2023-05-14T03:36:36.355Z,19.03
2023-05-14T03:39:29.286Z,18.82
2023-05-14T03:42:23.522Z,18.77
2023-05-14T03:45:17.558Z,18.79
2023-05-14T03:48:12.067Z,18.81
2023-05-14T03:51:06.350Z,18.79
2023-05-14T03:54:00.550Z,18.77
2023-05-14T03:56:54.437Z,18.77
2023-05-14T03:59:48.353Z,18.78
2023-05-14T04:02:42.495Z,18.96
2023-05-14T04:05:36.817Z,18.89
2023-05-14T04:08:31.100Z,18.89
2023-05-14T04:11:25.129Z,19.07
2023-05-14T04:14:19.012Z,18.81
2023-05-14T04:17:13.445Z,18.80
2023-05-14T04:20:09.721Z,18.69
2023-05-14T04:23:04.089Z,18.63
2023-05-14T04:25:58.254Z,18.62
2023-05-14T04:28:52.762Z,18.65
2023-05-14T04:31:47.106Z,18.75
2023-05-14T04:34:41.184Z,18.70
2023-05-14T04:37:35.098Z,18.78
2023-05-14T04:40:31.110Z,18.83
2023-05-14T04:43:25.220Z,18.77
2023-05-14T04:46:19.316Z,18.78
2023-05-14T04:49:13.363Z,18.80
2023-05-14T04:52:07.614Z,18.85
2023-05-14T04:55:01.587Z,18.80
2023-05-14T04:57:55.847Z,18.70
2023-05-14T05:00:50.056Z,18.69
2023-05-14T05:03:44.031Z,18.72
2023-05-14T05:06:38.133Z,18.73
2023-05-14T05:09:32.201Z,18.87
2023-05-14T05:12:29.953Z,18.86
2023-05-14T05:15:26.504Z,18.91
2023-05-14T05:18:41.261Z,18.87
2023-05-14T05:21:35.419Z,18.81
2023-05-14T05:24:29.190Z,18.98
2023-05-14T05:27:22.924Z,18.86
2023-05-14T05:30:17.305Z,18.03
2023-05-14T05:33:11.605Z,18.58
2023-05-14T05:36:05.801Z,18.66
2023-05-14T05:38:59.832Z,18.80
2023-05-14T05:41:54.905Z,18.91
2023-05-14T05:44:49.258Z,18.92
2023-05-14T05:47:43.625Z,18.96
2023-05-14T05:50:40.033Z,18.87
2023-05-14T05:53:40.856Z,18.87
2023-05-14T05:56:34.960Z,19.00
2023-05-14T05:59:28.854Z,19.22
2023-05-14T06:02:23.523Z,19.19
2023-05-14T06:05:18.175Z,19.21
2023-05-14T06:08:49.472Z,19.24
2023-05-14T06:12:28.076Z,19.26
2023-05-14T06:15:23.555Z,19.29
2023-05-14T06:18:17.188Z,19.20
2023-05-14T06:21:10.830Z,19.32
2023-05-14T06:24:04.517Z,19.00
2023-05-14T06:26:58.381Z,18.32
2023-05-14T06:29:52.103Z,17.89
2023-05-14T06:32:45.747Z,17.97
2023-05-14T06:35:39.681Z,17.85
2023-05-14T06:38:33.371Z,17.60
2023-05-14T06:41:27.192Z,17.15
2023-05-14T06:44:22.014Z,17.63
2023-05-14T06:47:15.885Z,18.00
2023-05-14T06:50:11.123Z,17.83
2023-05-14T06:53:05.143Z,17.40
2023-05-14T06:55:59.112Z,17.45
2023-05-14T06:58:52.832Z,17.61
2023-05-14T07:01:46.460Z,17.58
2023-05-14T07:04:40.399Z,17.57
2023-05-14T07:07:34.493Z,17.60
2023-05-14T07:10:28.271Z,17.78
2023-05-14T07:13:22.231Z,17.81
2023-05-14T07:16:16.011Z,17.88
2023-05-14T07:19:09.921Z,17.99
2023-05-14T07:22:03.627Z,17.95
2023-05-14T07:24:57.250Z,18.01
2023-05-14T07:27:51.044Z,18.19
2023-05-14T07:30:45.005Z,18.26
2023-05-14T07:33:39.702Z,18.68
2023-05-14T07:36:33.732Z,19.15
2023-05-14T07:39:27.655Z,19.24
2023-05-14T07:42:34.483Z,19.19
2023-05-14T07:45:29.464Z,19.16
2023-05-14T07:48:23.209Z,19.07
2023-05-14T07:51:17.030Z,19.06
2023-05-14T07:54:11.303Z,18.79
2023-05-14T07:57:05.679Z,18.93
2023-05-14T07:59:59.335Z,18.68
2023-05-14T08:02:53.155Z,18.89
2023-05-14T08:05:46.860Z,18.96
2023-05-14T08:08:41.162Z,18.88
2023-05-14T08:11:35.029Z,18.96
2023-05-14T08:14:29.083Z,19.24
2023-05-14T08:17:23.169Z,19.01
2023-05-14T08:20:17.822Z,19.21
2023-05-14T08:23:12.009Z,19.54
2023-05-14T08:26:06.149Z,19.62
2023-05-14T08:28:59.912Z,19.56
2023-05-14T08:31:54.242Z,19.59
2023-05-14T08:34:47.965Z,19.70
2023-05-14T08:37:42.375Z,19.48
2023-05-14T08:40:36.694Z,19.51
2023-05-14T08:43:44.113Z,19.59
2023-05-14T08:46:39.444Z,19.36
2023-05-14T08:49:41.642Z,19.51
2023-05-14T08:52:36.554Z,19.65
2023-05-14T08:55:32.923Z,19.74
2023-05-14T08:58:28.775Z,19.38
2023-05-14T09:01:23.287Z,19.70
2023-05-14T09:04:41.122Z,19.80
2023-05-14T09:07:34.858Z,19.82
2023-05-14T09:10:28.767Z,19.72
2023-05-14T09:13:22.936Z,19.85
2023-05-14T09:16:19.636Z,19.90
2023-05-14T09:19:15.698Z,19.88
2023-05-14T09:22:13.653Z,19.43
2023-05-14T09:25:12.587Z,19.87
2023-05-14T09:28:11.100Z,20.05
2023-05-14T09:31:04.845Z,19.98
2023-05-14T09:33:59.311Z,19.84
2023-05-14T09:36:55.500Z,19.64
2023-05-14T09:39:49.323Z,19.27
2023-05-14T09:42:43.332Z,19.49
2023-05-14T09:45:37.485Z,19.85
2023-05-14T09:48:31.489Z,20.07
2023-05-14T09:51:26.103Z,20.04
2023-05-14T09:54:20.376Z,19.99
2023-05-14T09:57:14.409Z,19.50
2023-05-14T10:00:10.635Z,19.64
2023-05-14T10:03:08.446Z,19.81
2023-05-14T10:06:05.904Z,19.61
2023-05-14T10:09:05.665Z,19.69
2023-05-14T10:12:03.474Z,19.90
2023-05-14T10:14:58.763Z,20.08
2023-05-14T10:18:01.529Z,19.88
2023-05-14T10:21:05.697Z,19.76
2023-05-14T10:24:00.299Z,19.94
2023-05-14T10:26:54.600Z,20.03
2023-05-14T10:29:56.776Z,20.09
2023-05-14T10:32:51.191Z,20.03
2023-05-14T10:36:13.095Z,20.06
2023-05-14T10:39:09.979Z,20.02
2023-05-14T10:42:03.763Z,20.15
2023-05-14T10:45:02.668Z,20.24
2023-05-14T10:47:56.781Z,20.03
2023-05-14T10:50:53.038Z,19.87
2023-05-14T10:53:47.445Z,20.06
2023-05-14T10:56:44.646Z,19.77
2023-05-14T10:59:41.895Z,19.84
2023-05-14T11:02:38.300Z,20.06
2023-05-14T11:05:32.446Z,20.02
2023-05-14T11:08:29.518Z,20.11
2023-05-14T11:11:26.064Z,20.20
2023-05-14T11:14:21.081Z,19.74
2023-05-14T11:17:15.974Z,19.40
2023-05-14T11:20:12.522Z,19.56
2023-05-14T11:23:06.472Z,19.50
2023-05-14T11:26:01.668Z,19.81
2023-05-14T11:28:55.602Z,19.69
2023-05-14T11:31:49.509Z,19.93
2023-05-14T11:34:44.823Z,19.89
2023-05-14T11:37:39.220Z,19.91
2023-05-14T11:40:33.006Z,19.61
2023-05-14T11:43:29.317Z,19.58
2023-05-14T11:46:23.855Z,19.66
2023-05-14T11:49:17.807Z,19.99
2023-05-14T11:52:14.310Z,19.67
2023-05-14T11:55:14.943Z,19.72
2023-05-14T11:58:12.918Z,19.89
2023-05-14T12:01:06.753Z,19.90
2023-05-14T12:04:02.945Z,20.01
2023-05-14T12:06:59.270Z,20.14
2023-05-14T12:09:53.286Z,19.83
2023-05-14T12:12:50.898Z,19.96
2023-05-14T12:15:45.436Z,19.95
2023-05-14T12:18:39.994Z,20.11
2023-05-14T12:21:36.648Z,19.93
2023-05-14T12:24:31.983Z,19.64
2023-05-14T12:27:28.207Z,19.49
2023-05-14T12:30:22.349Z,19.66
2023-05-14T12:33:18.087Z,19.83
2023-05-14T12:36:21.313Z,19.88
2023-05-14T12:39:15.946Z,19.71
2023-05-14T12:42:10.480Z,19.54
2023-05-14T12:45:07.267Z,19.87
2023-05-14T12:48:01.503Z,20.09
2023-05-14T12:50:58.720Z,19.58
2023-05-14T12:53:54.221Z,19.64
2023-05-14T12:56:48.230Z,19.85
2023-05-14T12:59:42.243Z,19.75
2023-05-14T13:02:43.171Z,19.58
2023-05-14T13:05:37.838Z,19.51
2023-05-14T13:08:32.044Z,19.50
2023-05-14T13:11:27.124Z,19.94
2023-05-14T13:14:20.914Z,19.82
2023-05-14T13:17:14.943Z,19.91
2023-05-14T13:19:54.861Z,19.83
2023-05-14T13:22:48.894Z,19.90
2023-05-14T13:25:43.104Z,19.83
2023-05-14T13:28:37.113Z,20.00
2023-05-14T13:31:31.076Z,19.79
2023-05-14T13:34:25.009Z,19.89
2023-05-14T13:37:18.927Z,20.00
2023-05-14T13:40:14.909Z,19.59
2023-05-14T13:43:09.122Z,19.50
2023-05-14T13:46:04.874Z,19.61
2023-05-14T13:48:59.139Z,19.67
2023-05-14T13:51:53.135Z,19.84
2023-05-14T13:54:47.192Z,19.90
2023-05-14T13:57:41.812Z,19.81
2023-05-14T14:00:35.958Z,19.90
2023-05-14T14:03:30.405Z,20.01
2023-05-14T14:06:24.398Z,20.11
2023-05-14T14:09:18.545Z,20.20
2023-05-14T14:12:13.498Z,19.78
2023-05-14T14:15:09.244Z,19.84
2023-05-14T14:18:03.065Z,19.93
2023-05-14T14:20:57.355Z,19.57
2023-05-14T14:23:51.470Z,19.69
2023-05-14T14:26:45.477Z,20.00
2023-05-14T14:29:39.448Z,19.65
2023-05-14T14:32:33.521Z,19.53
2023-05-14T14:35:27.947Z,19.98
2023-05-14T14:38:21.794Z,20.02
2023-05-14T14:41:15.692Z,19.99
2023-05-14T14:44:10.040Z,19.70
2023-05-14T14:47:04.047Z,19.72
2023-05-14T14:49:58.287Z,19.78
2023-05-14T14:52:52.437Z,19.88
2023-05-14T14:55:46.536Z,19.76
2023-05-14T14:58:40.439Z,19.89
2023-05-14T15:01:34.638Z,19.64
2023-05-14T15:04:30.659Z,19.69
2023-05-14T15:07:29.618Z,19.68
2023-05-14T15:10:23.659Z,19.69
2023-05-14T15:13:17.653Z,19.78
2023-05-14T15:16:12.513Z,19.77
2023-05-14T15:19:06.462Z,19.73
2023-05-14T15:22:00.694Z,19.88
2023-05-14T15:24:54.645Z,19.72
2023-05-14T15:27:48.866Z,19.96
2023-05-14T15:30:42.721Z,19.97
2023-05-14T15:33:37.300Z,20.05
2023-05-14T15:36:31.125Z,19.93
2023-05-14T15:39:24.945Z,20.08
2023-05-14T15:42:18.872Z,20.07
2023-05-14T15:45:15.317Z,20.07
2023-05-14T15:48:10.095Z,20.15
2023-05-14T15:51:04.116Z,20.16
2023-05-14T15:53:58.988Z,20.08
2023-05-14T15:56:54.432Z,20.06
2023-05-14T15:59:48.951Z,20.06
2023-05-14T16:02:43.389Z,20.04
2023-05-14T16:05:37.353Z,20.03
2023-05-14T16:08:31.742Z,20.00
2023-05-14T16:11:25.578Z,19.92
2023-05-14T16:14:19.545Z,19.88
2023-05-14T16:17:13.344Z,19.97
2023-05-14T16:20:08.477Z,19.71
2023-05-14T16:23:02.258Z,19.76
2023-05-14T16:25:56.077Z,19.55
2023-05-14T16:28:49.884Z,19.49
2023-05-14T16:31:43.717Z,19.72
2023-05-14T16:34:32.453Z,19.90
2023-05-14T16:37:26.687Z,19.99
2023-05-14T16:40:21.865Z,19.81
2023-05-14T16:43:15.780Z,19.65
2023-05-14T16:46:10.118Z,19.98
2023-05-14T16:49:04.164Z,19.83
2023-05-14T16:51:57.872Z,19.71
2023-05-14T16:54:51.999Z,19.88
2023-05-14T16:57:45.959Z,19.84
2023-05-14T17:00:39.795Z,19.87
2023-05-14T17:03:33.776Z,19.91
2023-05-14T17:06:27.682Z,19.84
2023-05-14T17:09:21.749Z,19.97
2023-05-14T17:12:15.747Z,19.83
2023-05-14T17:15:12.231Z,19.75
2023-05-14T17:18:06.885Z,19.98
2023-05-14T17:21:01.211Z,19.84
2023-05-14T17:23:55.494Z,19.67
2023-05-14T17:26:49.519Z,19.60
2023-05-14T17:29:44.489Z,19.53
2023-05-14T17:32:38.424Z,19.52
2023-05-14T17:35:35.755Z,19.50
2023-05-14T17:38:30.139Z,19.56
2023-05-14T17:41:24.087Z,19.54
2023-05-14T17:44:17.936Z,19.49
2023-05-14T17:47:12.089Z,19.47
2023-05-14T17:50:06.668Z,19.49
2023-05-14T17:53:00.602Z,19.45
2023-05-14T17:55:54.799Z,19.49
2023-05-14T17:58:50.160Z,19.48
2023-05-14T18:01:44.264Z,19.52
2023-05-14T18:04:38.225Z,19.47
2023-05-14T18:07:32.308Z,19.58
2023-05-14T18:10:26.236Z,19.52
2023-05-14T18:13:20.467Z,19.56
2023-05-14T18:16:14.292Z,19.45
2023-05-14T18:19:08.108Z,19.43
2023-05-14T18:22:49.397Z,19.58
2023-05-14T18:25:20.119Z,19.66
2023-05-14T18:28:14.668Z,19.71
2023-05-14T18:31:08.658Z,19.65
2023-05-14T18:34:02.650Z,19.50
2023-05-14T18:36:57.624Z,19.54
2023-05-14T18:39:51.661Z,19.54
2023-05-14T18:42:45.586Z,19.57
2023-05-14T18:45:39.875Z,19.48
2023-05-14T18:48:34.655Z,19.50
2023-05-14T18:51:31.989Z,19.49
2023-05-14T18:54:26.301Z,19.48
2023-05-14T18:57:20.931Z,19.46
2023-05-14T19:00:17.906Z,19.50
2023-05-14T19:03:12.239Z,19.67
2023-05-14T19:06:06.346Z,19.58
2023-05-14T19:09:00.813Z,19.51
2023-05-14T19:11:55.205Z,19.52
2023-05-14T19:14:49.154Z,19.53
2023-05-14T19:17:43.113Z,19.54
2023-05-14T19:20:37.367Z,19.56
2023-05-14T19:23:31.563Z,19.49
2023-05-14T19:29:22.632Z,19.54
2023-05-14T19:32:37.918Z,19.59
2023-05-14T19:35:34.122Z,19.52
2023-05-14T19:40:00.206Z,19.49
2023-05-14T19:42:54.180Z,19.40
2023-05-14T19:45:48.202Z,19.47
2023-05-14T19:48:42.193Z,19.29
2023-05-14T19:51:36.614Z,19.29
2023-05-14T19:54:30.914Z,19.35
2023-05-14T19:57:26.689Z,19.29
2023-05-14T20:00:22.390Z,19.40
2023-05-14T20:03:16.732Z,19.53
2023-05-14T20:06:10.897Z,19.56
2023-05-14T20:09:07.361Z,19.68
2023-05-14T20:12:01.310Z,19.68
2023-05-14T20:14:56.004Z,19.59
2023-05-14T20:18:11.072Z,19.64
2023-05-14T20:21:05.563Z,19.62
2023-05-14T20:23:59.806Z,19.80
2023-05-14T20:26:53.865Z,19.60
2023-05-14T20:29:51.252Z,19.54
2023-05-14T20:32:46.356Z,19.58
2023-05-14T20:35:43.746Z,19.57
2023-05-14T20:38:37.776Z,19.51
2023-05-14T20:41:31.762Z,19.48
2023-05-14T20:44:25.742Z,19.45
2023-05-14T20:47:21.524Z,19.53
2023-05-14T20:50:15.738Z,19.62
2023-05-14T20:53:09.653Z,19.56
2023-05-14T20:56:03.558Z,19.50
2023-05-14T20:58:57.508Z,19.45
2023-05-14T21:01:51.948Z,19.45
2023-05-14T21:04:46.046Z,19.27
2023-05-14T21:07:40.509Z,19.18
2023-05-14T21:10:34.866Z,19.25
2023-05-14T21:13:29.112Z,19.38
2023-05-14T21:16:09.406Z,19.40
2023-05-14T21:19:03.606Z,19.40
2023-05-14T21:21:59.646Z,19.35
2023-05-14T21:24:54.031Z,19.44
2023-05-14T21:27:47.932Z,19.29
2023-05-14T21:30:41.963Z,19.37
2023-05-14T21:33:36.183Z,19.36
2023-05-14T21:36:30.288Z,19.25
2023-05-14T21:39:24.608Z,19.28
2023-05-14T21:42:20.944Z,19.29
2023-05-14T21:45:15.633Z,19.30
2023-05-14T21:48:10.803Z,19.25
2023-05-14T21:51:04.952Z,19.26
2023-05-14T21:53:58.865Z,19.25
2023-05-14T21:56:53.571Z,19.23
2023-05-14T21:59:47.438Z,19.31
2023-05-14T22:02:41.209Z,19.23
2023-05-14T22:05:34.843Z,19.25
2023-05-14T22:08:45.258Z,19.18
2023-05-14T22:11:51.712Z,19.15
2023-05-14T22:14:40.255Z,19.13
2023-05-14T22:17:34.317Z,19.14
2023-05-14T22:20:28.297Z,19.11
2023-05-14T22:23:22.067Z,19.10
2023-05-14T22:26:16.745Z,19.07
2023-05-14T22:29:10.811Z,19.04
2023-05-14T22:32:07.568Z,19.09
2023-05-14T22:35:01.772Z,19.12
2023-05-14T22:37:55.490Z,19.07
2023-05-14T22:40:49.343Z,19.00
2023-05-14T22:43:43.057Z,19.06
2023-05-14T22:46:37.230Z,19.01
2023-05-14T22:49:31.415Z,18.98
2023-05-14T22:52:26.814Z,19.06
2023-05-14T22:55:21.359Z,18.96
2023-05-14T22:58:15.560Z,19.01
2023-05-14T23:01:09.573Z,19.06
2023-05-14T23:04:03.493Z,19.04
2023-05-14T23:06:57.223Z,19.01
2023-05-14T23:09:51.333Z,19.02
2023-05-14T23:12:45.520Z,18.89
2023-05-14T23:15:39.867Z,18.88
2023-05-14T23:18:21.306Z,18.94
2023-05-14T23:21:00.552Z,18.89
2023-05-14T23:23:54.633Z,18.91
2023-05-14T23:26:48.749Z,18.94
2023-05-14T23:29:42.419Z,18.87
2023-05-14T23:32:36.125Z,18.91
2023-05-14T23:35:30.239Z,18.95
2023-05-14T23:38:23.958Z,18.97
2023-05-14T23:41:17.679Z,18.99
2023-05-14T23:44:11.683Z,18.95
2023-05-14T23:47:05.736Z,18.94
2023-05-14T23:49:59.625Z,18.95
2023-05-14T23:52:54.218Z,18.96
2023-05-14T23:55:47.828Z,18.98
2023-05-14T23:58:41.692Z,18.85
